sensor_id;sensor_type;location;lat;lon;timestamp;P1;durP1;ratioP1;P2;durP2;ratioP2
13443;SDS011;6794;59.218;18.218;2022-12-07T00:00:00;9.67;;;4.53;;
13443;SDS011;6794;59.218;18.218;2022-12-07T00:02:26;6.83;;;4.23;;
13443;SDS011;6794;59.218;18.218;2022-12-07T00:04:52;8.35;;;4.72;;
13443;SDS011;6794;59.218;18.218;2022-12-07T00:07:18;8.33;;;4.03;;
13443;SDS011;6794;59.218;18.218;2022-12-07T00:09:44;7.07;;;3.63;;
13443;SDS011;6794;59.218;18.218;2022-12-07T00:12:10;5.30;;;3.58;;
13443;SDS011;6794;59.218;18.218;2022-12-07T00:14:36;8.17;;;3.53;;
13443;SDS011;6794;59.218;18.218;2022-12-07T00:17:02;5.20;;;3.23;;
13443;SDS011;6794;59.218;18.218;2022-12-07T00:19:28;3.97;;;2.75;;
13443;SDS011;6794;59.218;18.218;2022-12-07T00:21:54;4.75;;;3.22;;
13443;SDS011;6794;59.218;18.218;2022-12-07T00:24:20;5.27;;;2.97;;
13443;SDS011;6794;59.218;18.218;2022-12-07T00:26:46;7.40;;;3.60;;
13443;SDS011;6794;59.218;18.218;2022-12-07T00:29:16;7.15;;;3.25;;
13443;SDS011;6794;59.218;18.218;2022-12-07T00:31:43;6.60;;;2.92;;
13443;SDS011;6794;59.218;18.218;2022-12-07T00:34:13;8.68;;;3.30;;
13443;SDS011;6794;59.218;18.218;2022-12-07T00:36:39;5.60;;;3.50;;
13443;SDS011;6794;59.218;18.218;2022-12-07T00:39:05;6.25;;;2.55;;
13443;SDS011;6794;59.218;18.218;2022-12-07T00:41:31;4.90;;;2.73;;
13443;SDS011;6794;59.218;18.218;2022-12-07T00:43:57;4.38;;;2.65;;
13443;SDS011;6794;59.218;18.218;2022-12-07T00:46:23;5.13;;;3.13;;
13443;SDS011;6794;59.218;18.218;2022-12-07T00:48:50;9.55;;;3.45;;
13443;SDS011;6794;59.218;18.218;2022-12-07T00:51:17;3.65;;;2.70;;
13443;SDS011;6794;59.218;18.218;2022-12-07T00:53:43;7.72;;;3.10;;
13443;SDS011;6794;59.218;18.218;2022-12-07T00:56:13;5.57;;;2.92;;
13443;SDS011;6794;59.218;18.218;2022-12-07T00:58:39;7.40;;;2.92;;
13443;SDS011;6794;59.218;18.218;2022-12-07T01:01:06;8.43;;;2.85;;
13443;SDS011;6794;59.218;18.218;2022-12-07T01:03:32;8.05;;;3.22;;
13443;SDS011;6794;59.218;18.218;2022-12-07T01:05:58;8.30;;;3.47;;
13443;SDS011;6794;59.218;18.218;2022-12-07T01:08:25;5.82;;;3.17;;
13443;SDS011;6794;59.218;18.218;2022-12-07T01:11:02;6.80;;;3.15;;
13443;SDS011;6794;59.218;18.218;2022-12-07T01:13:29;7.20;;;2.88;;
13443;SDS011;6794;59.218;18.218;2022-12-07T01:15:59;7.10;;;2.60;;
13443;SDS011;6794;59.218;18.218;2022-12-07T01:18:28;5.10;;;3.00;;
13443;SDS011;6794;59.218;18.218;2022-12-07T01:21:01;7.50;;;2.92;;
13443;SDS011;6794;59.218;18.218;2022-12-07T01:23:28;4.95;;;2.60;;
13443;SDS011;6794;59.218;18.218;2022-12-07T01:25:54;6.13;;;3.05;;
13443;SDS011;6794;59.218;18.218;2022-12-07T01:28:20;7.25;;;2.95;;
13443;SDS011;6794;59.218;18.218;2022-12-07T01:30:54;4.70;;;2.10;;
13443;SDS011;6794;59.218;18.218;2022-12-07T01:33:20;5.47;;;3.00;;
13443;SDS011;6794;59.218;18.218;2022-12-07T01:35:46;4.25;;;2.80;;
13443;SDS011;6794;59.218;18.218;2022-12-07T01:38:12;4.53;;;2.50;;
13443;SDS011;6794;59.218;18.218;2022-12-07T01:40:38;5.50;;;2.37;;
13443;SDS011;6794;59.218;18.218;2022-12-07T01:43:09;7.47;;;3.42;;
13443;SDS011;6794;59.218;18.218;2022-12-07T01:45:40;6.00;;;2.65;;
13443;SDS011;6794;59.218;18.218;2022-12-07T01:48:07;4.70;;;2.60;;
13443;SDS011;6794;59.218;18.218;2022-12-07T01:50:34;5.05;;;2.83;;
13443;SDS011;6794;59.218;18.218;2022-12-07T01:53:01;5.88;;;2.90;;
13443;SDS011;6794;59.218;18.218;2022-12-07T01:55:29;8.00;;;2.97;;
13443;SDS011;6794;59.218;18.218;2022-12-07T01:57:55;5.75;;;2.58;;
13443;SDS011;6794;59.218;18.218;2022-12-07T02:00:22;4.82;;;3.03;;
13443;SDS011;6794;59.218;18.218;2022-12-07T02:02:50;5.05;;;2.58;;
13443;SDS011;6794;59.218;18.218;2022-12-07T02:05:17;4.70;;;2.38;;
13443;SDS011;6794;59.218;18.218;2022-12-07T02:07:43;4.97;;;2.75;;
13443;SDS011;6794;59.218;18.218;2022-12-07T02:10:15;6.28;;;2.80;;
13443;SDS011;6794;59.218;18.218;2022-12-07T02:12:41;7.93;;;2.95;;
13443;SDS011;6794;59.218;18.218;2022-12-07T02:15:08;6.00;;;2.47;;
13443;SDS011;6794;59.218;18.218;2022-12-07T02:17:37;6.38;;;2.88;;
13443;SDS011;6794;59.218;18.218;2022-12-07T02:30:20;4.82;;;2.35;;
13443;SDS011;6794;59.218;18.218;2022-12-07T02:35:19;3.17;;;2.50;;
13443;SDS011;6794;59.218;18.218;2022-12-07T02:37:58;4.75;;;2.58;;
13443;SDS011;6794;59.218;18.218;2022-12-07T02:40:36;5.47;;;2.30;;
13443;SDS011;6794;59.218;18.218;2022-12-07T02:43:08;5.07;;;2.45;;
13443;SDS011;6794;59.218;18.218;2022-12-07T02:45:36;3.58;;;2.30;;
13443;SDS011;6794;59.218;18.218;2022-12-07T02:48:04;3.63;;;2.63;;
13443;SDS011;6794;59.218;18.218;2022-12-07T02:50:31;5.35;;;2.70;;
13443;SDS011;6794;59.218;18.218;2022-12-07T02:52:57;4.57;;;2.53;;
13443;SDS011;6794;59.218;18.218;2022-12-07T02:55:26;3.08;;;1.92;;
13443;SDS011;6794;59.218;18.218;2022-12-07T03:00:23;4.60;;;2.20;;
13443;SDS011;6794;59.218;18.218;2022-12-07T03:05:41;6.10;;;2.50;;
13443;SDS011;6794;59.218;18.218;2022-12-07T03:08:23;5.25;;;2.30;;
13443;SDS011;6794;59.218;18.218;2022-12-07T03:10:56;5.45;;;2.55;;
13443;SDS011;6794;59.218;18.218;2022-12-07T03:13:25;5.43;;;2.60;;
13443;SDS011;6794;59.218;18.218;2022-12-07T03:18:43;4.88;;;2.67;;
13443;SDS011;6794;59.218;18.218;2022-12-07T03:21:11;6.50;;;2.38;;
13443;SDS011;6794;59.218;18.218;2022-12-07T03:23:38;3.88;;;2.67;;
13443;SDS011;6794;59.218;18.218;2022-12-07T03:26:06;5.20;;;2.60;;
13443;SDS011;6794;59.218;18.218;2022-12-07T03:28:35;7.40;;;2.90;;
13443;SDS011;6794;59.218;18.218;2022-12-07T03:31:16;4.38;;;2.60;;
13443;SDS011;6794;59.218;18.218;2022-12-07T03:33:52;4.75;;;3.13;;
13443;SDS011;6794;59.218;18.218;2022-12-07T03:36:21;6.28;;;4.00;;
13443;SDS011;6794;59.218;18.218;2022-12-07T03:38:50;4.95;;;3.33;;
13443;SDS011;6794;59.218;18.218;2022-12-07T03:41:27;5.22;;;3.00;;
13443;SDS011;6794;59.218;18.218;2022-12-07T03:43:54;4.53;;;2.38;;
13443;SDS011;6794;59.218;18.218;2022-12-07T03:46:27;5.63;;;2.50;;
13443;SDS011;6794;59.218;18.218;2022-12-07T03:49:00;3.83;;;2.20;;
13443;SDS011;6794;59.218;18.218;2022-12-07T03:56:38;8.07;;;3.30;;
13443;SDS011;6794;59.218;18.218;2022-12-07T03:59:05;3.47;;;2.08;;
13443;SDS011;6794;59.218;18.218;2022-12-07T04:01:31;6.38;;;1.90;;
13443;SDS011;6794;59.218;18.218;2022-12-07T04:03:57;3.28;;;1.98;;
13443;SDS011;6794;59.218;18.218;2022-12-07T04:06:23;4.28;;;2.00;;
13443;SDS011;6794;59.218;18.218;2022-12-07T04:08:49;5.10;;;2.07;;
13443;SDS011;6794;59.218;18.218;2022-12-07T04:11:15;3.83;;;2.20;;
13443;SDS011;6794;59.218;18.218;2022-12-07T04:13:41;4.68;;;3.00;;
13443;SDS011;6794;59.218;18.218;2022-12-07T04:16:26;6.47;;;2.60;;
13443;SDS011;6794;59.218;18.218;2022-12-07T04:18:52;5.30;;;2.73;;
13443;SDS011;6794;59.218;18.218;2022-12-07T04:21:18;4.87;;;2.57;;
13443;SDS011;6794;59.218;18.218;2022-12-07T04:23:44;6.43;;;2.70;;
13443;SDS011;6794;59.218;18.218;2022-12-07T04:26:10;12.33;;;4.13;;
13443;SDS011;6794;59.218;18.218;2022-12-07T04:28:36;10.43;;;4.22;;
13443;SDS011;6794;59.218;18.218;2022-12-07T04:31:02;12.77;;;4.17;;
13443;SDS011;6794;59.218;18.218;2022-12-07T04:33:28;8.47;;;4.00;;
13443;SDS011;6794;59.218;18.218;2022-12-07T04:35:54;9.77;;;4.03;;
13443;SDS011;6794;59.218;18.218;2022-12-07T04:38:20;7.32;;;2.97;;
13443;SDS011;6794;59.218;18.218;2022-12-07T04:40:46;9.03;;;3.60;;
13443;SDS011;6794;59.218;18.218;2022-12-07T04:43:12;9.60;;;3.80;;
13443;SDS011;6794;59.218;18.218;2022-12-07T04:45:38;8.13;;;3.35;;
13443;SDS011;6794;59.218;18.218;2022-12-07T04:48:04;8.75;;;3.80;;
13443;SDS011;6794;59.218;18.218;2022-12-07T04:50:30;6.22;;;3.13;;
13443;SDS011;6794;59.218;18.218;2022-12-07T04:52:56;11.75;;;4.97;;
13443;SDS011;6794;59.218;18.218;2022-12-07T04:55:22;8.75;;;4.03;;
13443;SDS011;6794;59.218;18.218;2022-12-07T04:57:48;5.80;;;3.20;;
13443;SDS011;6794;59.218;18.218;2022-12-07T05:00:14;9.97;;;3.53;;
13443;SDS011;6794;59.218;18.218;2022-12-07T05:02:40;5.55;;;3.00;;
13443;SDS011;6794;59.218;18.218;2022-12-07T05:05:06;4.40;;;2.70;;
13443;SDS011;6794;59.218;18.218;2022-12-07T05:07:32;4.00;;;2.50;;
13443;SDS011;6794;59.218;18.218;2022-12-07T05:09:58;5.67;;;2.70;;
13443;SDS011;6794;59.218;18.218;2022-12-07T05:12:24;5.93;;;2.90;;
13443;SDS011;6794;59.218;18.218;2022-12-07T05:14:50;7.40;;;2.77;;
13443;SDS011;6794;59.218;18.218;2022-12-07T05:17:16;4.75;;;2.42;;
13443;SDS011;6794;59.218;18.218;2022-12-07T05:19:42;6.32;;;2.00;;
13443;SDS011;6794;59.218;18.218;2022-12-07T05:22:09;3.47;;;2.08;;
13443;SDS011;6794;59.218;18.218;2022-12-07T05:24:35;3.08;;;2.13;;
13443;SDS011;6794;59.218;18.218;2022-12-07T05:27:01;5.63;;;2.37;;
13443;SDS011;6794;59.218;18.218;2022-12-07T05:29:27;5.35;;;2.55;;
13443;SDS011;6794;59.218;18.218;2022-12-07T05:31:53;10.87;;;4.03;;
13443;SDS011;6794;59.218;18.218;2022-12-07T05:34:19;7.87;;;3.17;;
13443;SDS011;6794;59.218;18.218;2022-12-07T05:36:45;8.68;;;2.78;;
13443;SDS011;6794;59.218;18.218;2022-12-07T05:39:11;3.88;;;1.98;;
13443;SDS011;6794;59.218;18.218;2022-12-07T05:41:37;4.10;;;2.40;;
13443;SDS011;6794;59.218;18.218;2022-12-07T05:44:22;3.95;;;2.13;;
13443;SDS011;6794;59.218;18.218;2022-12-07T05:46:48;9.60;;;3.13;;
13443;SDS011;6794;59.218;18.218;2022-12-07T05:49:14;5.03;;;2.70;;
13443;SDS011;6794;59.218;18.218;2022-12-07T05:51:40;4.90;;;3.17;;
13443;SDS011;6794;59.218;18.218;2022-12-07T05:54:06;6.88;;;2.50;;
13443;SDS011;6794;59.218;18.218;2022-12-07T05:56:32;5.77;;;2.43;;
13443;SDS011;6794;59.218;18.218;2022-12-07T05:58:58;4.40;;;2.07;;
13443;SDS011;6794;59.218;18.218;2022-12-07T06:01:42;3.67;;;2.33;;
13443;SDS011;6794;59.218;18.218;2022-12-07T06:04:08;6.68;;;2.58;;
13443;SDS011;6794;59.218;18.218;2022-12-07T06:06:34;4.50;;;2.70;;
13443;SDS011;6794;59.218;18.218;2022-12-07T06:09:00;6.63;;;2.92;;
13443;SDS011;6794;59.218;18.218;2022-12-07T06:11:27;3.65;;;2.03;;
13443;SDS011;6794;59.218;18.218;2022-12-07T06:14:11;5.03;;;2.30;;
13443;SDS011;6794;59.218;18.218;2022-12-07T06:16:37;4.43;;;2.10;;
13443;SDS011;6794;59.218;18.218;2022-12-07T06:19:03;4.40;;;2.50;;
13443;SDS011;6794;59.218;18.218;2022-12-07T06:21:29;4.50;;;2.70;;
13443;SDS011;6794;59.218;18.218;2022-12-07T06:23:55;9.25;;;2.75;;
13443;SDS011;6794;59.218;18.218;2022-12-07T06:26:22;5.15;;;2.70;;
13443;SDS011;6794;59.218;18.218;2022-12-07T06:28:48;3.70;;;2.22;;
13443;SDS011;6794;59.218;18.218;2022-12-07T06:31:14;6.65;;;2.50;;
13443;SDS011;6794;59.218;18.218;2022-12-07T06:33:40;3.20;;;2.30;;
13443;SDS011;6794;59.218;18.218;2022-12-07T06:36:07;5.72;;;2.38;;
13443;SDS011;6794;59.218;18.218;2022-12-07T06:38:33;8.15;;;2.45;;
13443;SDS011;6794;59.218;18.218;2022-12-07T06:40:59;6.80;;;2.30;;
13443;SDS011;6794;59.218;18.218;2022-12-07T06:43:25;8.45;;;2.47;;
13443;SDS011;6794;59.218;18.218;2022-12-07T06:45:51;6.85;;;3.53;;
13443;SDS011;6794;59.218;18.218;2022-12-07T06:48:17;6.43;;;2.88;;
13443;SDS011;6794;59.218;18.218;2022-12-07T06:50:46;5.95;;;2.83;;
13443;SDS011;6794;59.218;18.218;2022-12-07T06:53:12;4.75;;;2.78;;
13443;SDS011;6794;59.218;18.218;2022-12-07T06:55:38;3.30;;;2.20;;
13443;SDS011;6794;59.218;18.218;2022-12-07T06:58:04;10.52;;;2.63;;
13443;SDS011;6794;59.218;18.218;2022-12-07T07:00:30;4.80;;;2.33;;
13443;SDS011;6794;59.218;18.218;2022-12-07T07:02:56;7.88;;;2.40;;
13443;SDS011;6794;59.218;18.218;2022-12-07T07:05:22;9.77;;;2.78;;
13443;SDS011;6794;59.218;18.218;2022-12-07T07:07:49;7.10;;;2.42;;
13443;SDS011;6794;59.218;18.218;2022-12-07T07:10:15;6.93;;;2.33;;
13443;SDS011;6794;59.218;18.218;2022-12-07T07:12:41;4.88;;;2.33;;
13443;SDS011;6794;59.218;18.218;2022-12-07T07:15:07;8.95;;;2.03;;
13443;SDS011;6794;59.218;18.218;2022-12-07T07:17:34;2.90;;;2.13;;
13443;SDS011;6794;59.218;18.218;2022-12-07T07:20:00;5.40;;;2.20;;
13443;SDS011;6794;59.218;18.218;2022-12-07T07:22:26;5.45;;;2.60;;
13443;SDS011;6794;59.218;18.218;2022-12-07T07:24:52;3.28;;;2.00;;
13443;SDS011;6794;59.218;18.218;2022-12-07T07:27:18;7.75;;;2.60;;
13443;SDS011;6794;59.218;18.218;2022-12-07T07:29:44;5.47;;;2.10;;
13443;SDS011;6794;59.218;18.218;2022-12-07T07:32:10;8.23;;;2.60;;
13443;SDS011;6794;59.218;18.218;2022-12-07T07:34:37;3.92;;;2.20;;
13443;SDS011;6794;59.218;18.218;2022-12-07T07:37:03;4.00;;;1.90;;
13443;SDS011;6794;59.218;18.218;2022-12-07T07:39:29;5.80;;;1.98;;
13443;SDS011;6794;59.218;18.218;2022-12-07T07:41:55;5.85;;;2.28;;
13443;SDS011;6794;59.218;18.218;2022-12-07T07:44:21;7.33;;;1.83;;
13443;SDS011;6794;59.218;18.218;2022-12-07T07:46:47;6.63;;;2.13;;
13443;SDS011;6794;59.218;18.218;2022-12-07T07:49:13;3.53;;;1.92;;
13443;SDS011;6794;59.218;18.218;2022-12-07T07:51:39;6.90;;;2.43;;
13443;SDS011;6794;59.218;18.218;2022-12-07T07:54:05;3.72;;;2.30;;
13443;SDS011;6794;59.218;18.218;2022-12-07T07:56:31;8.70;;;2.38;;
13443;SDS011;6794;59.218;18.218;2022-12-07T07:58:57;6.33;;;2.40;;
13443;SDS011;6794;59.218;18.218;2022-12-07T08:01:23;6.03;;;1.92;;
13443;SDS011;6794;59.218;18.218;2022-12-07T08:03:49;9.97;;;2.30;;
13443;SDS011;6794;59.218;18.218;2022-12-07T08:06:15;8.02;;;2.60;;
13443;SDS011;6794;59.218;18.218;2022-12-07T08:08:41;7.03;;;2.33;;
13443;SDS011;6794;59.218;18.218;2022-12-07T08:11:10;7.28;;;2.45;;
13443;SDS011;6794;59.218;18.218;2022-12-07T08:13:36;7.95;;;2.55;;
13443;SDS011;6794;59.218;18.218;2022-12-07T08:16:03;4.30;;;2.17;;
13443;SDS011;6794;59.218;18.218;2022-12-07T08:18:29;4.68;;;2.63;;
13443;SDS011;6794;59.218;18.218;2022-12-07T08:20:59;5.28;;;2.15;;
13443;SDS011;6794;59.218;18.218;2022-12-07T08:23:28;4.22;;;2.40;;
13443;SDS011;6794;59.218;18.218;2022-12-07T08:25:55;7.47;;;2.45;;
13443;SDS011;6794;59.218;18.218;2022-12-07T08:28:21;4.93;;;1.98;;
13443;SDS011;6794;59.218;18.218;2022-12-07T08:30:47;7.30;;;2.38;;
13443;SDS011;6794;59.218;18.218;2022-12-07T08:33:13;9.27;;;2.40;;
13443;SDS011;6794;59.218;18.218;2022-12-07T08:35:39;5.13;;;2.63;;
13443;SDS011;6794;59.218;18.218;2022-12-07T08:38:05;4.17;;;2.30;;
13443;SDS011;6794;59.218;18.218;2022-12-07T08:40:31;5.47;;;2.22;;
13443;SDS011;6794;59.218;18.218;2022-12-07T08:42:57;6.37;;;2.10;;
13443;SDS011;6794;59.218;18.218;2022-12-07T08:45:23;9.00;;;3.08;;
13443;SDS011;6794;59.218;18.218;2022-12-07T08:47:53;5.20;;;2.50;;
13443;SDS011;6794;59.218;18.218;2022-12-07T08:50:20;6.43;;;2.33;;
13443;SDS011;6794;59.218;18.218;2022-12-07T08:52:48;8.10;;;2.00;;
13443;SDS011;6794;59.218;18.218;2022-12-07T08:55:17;5.75;;;2.53;;
13443;SDS011;6794;59.218;18.218;2022-12-07T08:57:43;4.65;;;2.17;;
13443;SDS011;6794;59.218;18.218;2022-12-07T09:00:09;9.18;;;1.77;;
13443;SDS011;6794;59.218;18.218;2022-12-07T09:02:35;6.20;;;2.20;;
13443;SDS011;6794;59.218;18.218;2022-12-07T09:05:02;4.47;;;1.63;;
13443;SDS011;6794;59.218;18.218;2022-12-07T09:07:28;4.85;;;1.52;;
13443;SDS011;6794;59.218;18.218;2022-12-07T09:09:56;4.50;;;1.63;;
13443;SDS011;6794;59.218;18.218;2022-12-07T09:12:22;7.35;;;3.22;;
13443;SDS011;6794;59.218;18.218;2022-12-07T09:14:48;7.07;;;1.80;;
13443;SDS011;6794;59.218;18.218;2022-12-07T09:17:14;6.88;;;3.20;;
13443;SDS011;6794;59.218;18.218;2022-12-07T09:19:40;7.50;;;2.90;;
13443;SDS011;6794;59.218;18.218;2022-12-07T09:22:07;8.02;;;2.40;;
13443;SDS011;6794;59.218;18.218;2022-12-07T09:24:33;5.57;;;2.55;;
13443;SDS011;6794;59.218;18.218;2022-12-07T09:26:59;8.53;;;2.67;;
13443;SDS011;6794;59.218;18.218;2022-12-07T09:29:25;6.70;;;2.60;;
13443;SDS011;6794;59.218;18.218;2022-12-07T09:31:52;4.22;;;2.17;;
13443;SDS011;6794;59.218;18.218;2022-12-07T09:34:18;8.00;;;2.75;;
13443;SDS011;6794;59.218;18.218;2022-12-07T09:36:45;5.25;;;2.28;;
13443;SDS011;6794;59.218;18.218;2022-12-07T09:39:11;4.90;;;2.55;;
13443;SDS011;6794;59.218;18.218;2022-12-07T09:41:40;3.22;;;2.00;;
13443;SDS011;6794;59.218;18.218;2022-12-07T09:44:11;3.88;;;1.90;;
13443;SDS011;6794;59.218;18.218;2022-12-07T09:46:39;3.53;;;1.40;;
13443;SDS011;6794;59.218;18.218;2022-12-07T09:49:08;4.60;;;1.95;;
13443;SDS011;6794;59.218;18.218;2022-12-07T09:51:36;6.07;;;1.77;;
13443;SDS011;6794;59.218;18.218;2022-12-07T09:54:02;3.43;;;1.60;;
13443;SDS011;6794;59.218;18.218;2022-12-07T09:56:28;6.20;;;1.90;;
13443;SDS011;6794;59.218;18.218;2022-12-07T09:58:59;5.95;;;1.90;;
13443;SDS011;6794;59.218;18.218;2022-12-07T10:01:29;5.28;;;1.60;;
13443;SDS011;6794;59.218;18.218;2022-12-07T10:06:41;3.63;;;1.10;;
13443;SDS011;6794;59.218;18.218;2022-12-07T10:09:14;7.22;;;2.00;;
13443;SDS011;6794;59.218;18.218;2022-12-07T10:14:27;2.90;;;1.43;;
13443;SDS011;6794;59.218;18.218;2022-12-07T10:16:54;3.60;;;1.20;;
13443;SDS011;6794;59.218;18.218;2022-12-07T10:19:25;5.88;;;1.50;;
13443;SDS011;6794;59.218;18.218;2022-12-07T10:22:03;2.03;;;1.47;;
13443;SDS011;6794;59.218;18.218;2022-12-07T10:24:30;4.90;;;1.40;;
13443;SDS011;6794;59.218;18.218;2022-12-07T10:26:56;1.60;;;1.30;;
13443;SDS011;6794;59.218;18.218;2022-12-07T10:29:24;4.25;;;1.50;;
13443;SDS011;6794;59.218;18.218;2022-12-07T10:31:55;4.03;;;1.40;;
13443;SDS011;6794;59.218;18.218;2022-12-07T10:34:29;3.47;;;1.57;;
13443;SDS011;6794;59.218;18.218;2022-12-07T10:39:50;1.42;;;1.00;;
13443;SDS011;6794;59.218;18.218;2022-12-07T10:42:18;3.92;;;1.73;;
13443;SDS011;6794;59.218;18.218;2022-12-07T10:44:44;5.67;;;1.60;;
13443;SDS011;6794;59.218;18.218;2022-12-07T10:52:34;1.90;;;1.20;;
13443;SDS011;6794;59.218;18.218;2022-12-07T10:57:38;2.80;;;1.50;;
13443;SDS011;6794;59.218;18.218;2022-12-07T11:00:11;4.23;;;1.30;;
13443;SDS011;6794;59.218;18.218;2022-12-07T11:05:17;2.13;;;1.10;;
13443;SDS011;6794;59.218;18.218;2022-12-07T11:15:49;4.30;;;1.10;;
13443;SDS011;6794;59.218;18.218;2022-12-07T11:26:01;4.40;;;1.60;;
13443;SDS011;6794;59.218;18.218;2022-12-07T11:28:33;2.13;;;0.88;;
13443;SDS011;6794;59.218;18.218;2022-12-07T11:34:15;1.57;;;0.80;;
13443;SDS011;6794;59.218;18.218;2022-12-07T11:36:45;2.27;;;1.20;;
13443;SDS011;6794;59.218;18.218;2022-12-07T11:39:22;2.63;;;0.93;;
13443;SDS011;6794;59.218;18.218;2022-12-07T11:41:54;2.00;;;1.07;;
13443;SDS011;6794;59.218;18.218;2022-12-07T11:46:49;3.80;;;1.50;;
13443;SDS011;6794;59.218;18.218;2022-12-07T11:52:01;1.60;;;1.27;;
13443;SDS011;6794;59.218;18.218;2022-12-07T11:54:29;4.83;;;1.10;;
13443;SDS011;6794;59.218;18.218;2022-12-07T11:56:59;2.38;;;0.90;;
13443;SDS011;6794;59.218;18.218;2022-12-07T11:59:33;4.93;;;1.50;;
13443;SDS011;6794;59.218;18.218;2022-12-07T12:04:40;1.47;;;1.00;;
13443;SDS011;6794;59.218;18.218;2022-12-07T12:07:10;3.20;;;1.40;;
13443;SDS011;6794;59.218;18.218;2022-12-07T12:09:43;3.40;;;1.03;;
13443;SDS011;6794;59.218;18.218;2022-12-07T12:22:33;2.83;;;1.00;;
13443;SDS011;6794;59.218;18.218;2022-12-07T12:25:00;1.20;;;1.00;;
13443;SDS011;6794;59.218;18.218;2022-12-07T12:27:34;5.90;;;2.33;;
13443;SDS011;6794;59.218;18.218;2022-12-07T12:30:02;3.23;;;1.40;;
13443;SDS011;6794;59.218;18.218;2022-12-07T12:32:34;2.33;;;1.20;;
13443;SDS011;6794;59.218;18.218;2022-12-07T12:35:47;2.80;;;1.40;;
13443;SDS011;6794;59.218;18.218;2022-12-07T12:37:48;2.55;;;1.75;;
13443;SDS011;6794;59.218;18.218;2022-12-07T12:45:23;3.37;;;1.30;;
13443;SDS011;6794;59.218;18.218;2022-12-07T12:50:32;4.43;;;1.63;;
13443;SDS011;6794;59.218;18.218;2022-12-07T12:53:00;3.17;;;1.20;;
13443;SDS011;6794;59.218;18.218;2022-12-07T12:55:53;4.60;;;2.10;;
13443;SDS011;6794;59.218;18.218;2022-12-07T13:00:46;5.30;;;1.30;;
13443;SDS011;6794;59.218;18.218;2022-12-07T13:08:56;1.93;;;1.20;;
13443;SDS011;6794;59.218;18.218;2022-12-07T13:11:31;3.67;;;1.20;;
13443;SDS011;6794;59.218;18.218;2022-12-07T13:16:42;2.43;;;0.97;;
13443;SDS011;6794;59.218;18.218;2022-12-07T13:21:52;3.37;;;1.50;;
13443;SDS011;6794;59.218;18.218;2022-12-07T13:24:18;2.17;;;1.13;;
13443;SDS011;6794;59.218;18.218;2022-12-07T13:26:45;4.10;;;1.23;;
13443;SDS011;6794;59.218;18.218;2022-12-07T13:29:15;2.93;;;1.10;;
13443;SDS011;6794;59.218;18.218;2022-12-07T13:31:48;2.50;;;1.00;;
13443;SDS011;6794;59.218;18.218;2022-12-07T13:34:31;4.13;;;1.93;;
13443;SDS011;6794;59.218;18.218;2022-12-07T13:36:58;4.43;;;1.33;;
13443;SDS011;6794;59.218;18.218;2022-12-07T13:39:25;2.10;;;0.93;;
13443;SDS011;6794;59.218;18.218;2022-12-07T13:42:19;3.30;;;1.30;;
13443;SDS011;6794;59.218;18.218;2022-12-07T13:44:39;1.87;;;1.20;;
13443;SDS011;6794;59.218;18.218;2022-12-07T13:47:12;3.10;;;1.07;;
13443;SDS011;6794;59.218;18.218;2022-12-07T13:49:50;3.83;;;2.05;;
13443;SDS011;6794;59.218;18.218;2022-12-07T13:55:21;3.55;;;1.55;;
13443;SDS011;6794;59.218;18.218;2022-12-07T14:00:51;3.57;;;1.90;;
13443;SDS011;6794;59.218;18.218;2022-12-07T14:03:35;5.63;;;1.67;;
13443;SDS011;6794;59.218;18.218;2022-12-07T14:08:30;8.57;;;1.60;;
13443;SDS011;6794;59.218;18.218;2022-12-07T14:10:57;2.67;;;1.50;;
13443;SDS011;6794;59.218;18.218;2022-12-07T14:13:34;2.07;;;1.37;;
13443;SDS011;6794;59.218;18.218;2022-12-07T14:16:01;3.30;;;1.25;;
13443;SDS011;6794;59.218;18.218;2022-12-07T14:18:29;3.90;;;1.55;;
13443;SDS011;6794;59.218;18.218;2022-12-07T14:21:02;5.83;;;1.80;;
13443;SDS011;6794;59.218;18.218;2022-12-07T14:23:28;3.43;;;1.50;;
13443;SDS011;6794;59.218;18.218;2022-12-07T14:26:03;2.83;;;1.42;;
13443;SDS011;6794;59.218;18.218;2022-12-07T14:28:31;3.65;;;1.67;;
13443;SDS011;6794;59.218;18.218;2022-12-07T14:30:58;1.35;;;1.25;;
13443;SDS011;6794;59.218;18.218;2022-12-07T14:33:24;2.85;;;1.50;;
13443;SDS011;6794;59.218;18.218;2022-12-07T14:35:50;2.33;;;1.70;;
13443;SDS011;6794;59.218;18.218;2022-12-07T14:38:25;3.90;;;1.43;;
13443;SDS011;6794;59.218;18.218;2022-12-07T14:40:51;1.70;;;1.10;;
13443;SDS011;6794;59.218;18.218;2022-12-07T14:43:18;1.73;;;1.10;;
13443;SDS011;6794;59.218;18.218;2022-12-07T14:45:44;2.10;;;1.13;;
13443;SDS011;6794;59.218;18.218;2022-12-07T14:48:11;3.93;;;1.50;;
13443;SDS011;6794;59.218;18.218;2022-12-07T14:50:38;3.33;;;1.87;;
13443;SDS011;6794;59.218;18.218;2022-12-07T14:53:14;4.67;;;1.77;;
13443;SDS011;6794;59.218;18.218;2022-12-07T14:55:40;4.37;;;2.67;;
13443;SDS011;6794;59.218;18.218;2022-12-07T14:58:10;1.70;;;0.93;;
13443;SDS011;6794;59.218;18.218;2022-12-07T15:00:37;3.43;;;1.57;;
13443;SDS011;6794;59.218;18.218;2022-12-07T15:03:03;7.97;;;2.83;;
13443;SDS011;6794;59.218;18.218;2022-12-07T15:05:29;2.83;;;1.90;;
13443;SDS011;6794;59.218;18.218;2022-12-07T15:07:55;3.80;;;1.87;;
13443;SDS011;6794;59.218;18.218;2022-12-07T15:10:29;3.17;;;1.97;;
13443;SDS011;6794;59.218;18.218;2022-12-07T15:13:00;2.65;;;1.83;;
13443;SDS011;6794;59.218;18.218;2022-12-07T15:15:45;3.63;;;1.50;;
13443;SDS011;6794;59.218;18.218;2022-12-07T15:18:11;4.97;;;2.80;;
13443;SDS011;6794;59.218;18.218;2022-12-07T15:20:37;5.17;;;2.00;;
13443;SDS011;6794;59.218;18.218;2022-12-07T15:25:58;3.35;;;2.00;;
13443;SDS011;6794;59.218;18.218;2022-12-07T15:28:24;1.47;;;1.10;;
13443;SDS011;6794;59.218;18.218;2022-12-07T15:30:50;2.85;;;2.28;;
13443;SDS011;6794;59.218;18.218;2022-12-07T15:33:16;5.47;;;2.28;;
13443;SDS011;6794;59.218;18.218;2022-12-07T15:35:43;2.33;;;2.00;;
13443;SDS011;6794;59.218;18.218;2022-12-07T15:38:10;4.53;;;2.03;;
13443;SDS011;6794;59.218;18.218;2022-12-07T15:40:36;4.75;;;2.88;;
13443;SDS011;6794;59.218;18.218;2022-12-07T15:43:02;3.40;;;2.77;;
13443;SDS011;6794;59.218;18.218;2022-12-07T15:45:29;3.60;;;2.00;;
13443;SDS011;6794;59.218;18.218;2022-12-07T15:47:55;2.47;;;1.57;;
13443;SDS011;6794;59.218;18.218;2022-12-07T15:50:21;2.88;;;2.05;;
13443;SDS011;6794;59.218;18.218;2022-12-07T15:52:48;4.37;;;2.07;;
13443;SDS011;6794;59.218;18.218;2022-12-07T15:55:14;2.67;;;1.90;;
13443;SDS011;6794;59.218;18.218;2022-12-07T15:57:40;4.60;;;2.53;;
13443;SDS011;6794;59.218;18.218;2022-12-07T16:00:07;3.60;;;2.33;;
13443;SDS011;6794;59.218;18.218;2022-12-07T16:02:34;5.40;;;2.10;;
13443;SDS011;6794;59.218;18.218;2022-12-07T16:05:01;3.07;;;1.60;;
13443;SDS011;6794;59.218;18.218;2022-12-07T16:07:27;3.93;;;1.43;;
13443;SDS011;6794;59.218;18.218;2022-12-07T16:09:53;2.40;;;1.40;;
13443;SDS011;6794;59.218;18.218;2022-12-07T16:12:20;4.00;;;1.70;;
13443;SDS011;6794;59.218;18.218;2022-12-07T16:14:46;4.05;;;2.00;;
13443;SDS011;6794;59.218;18.218;2022-12-07T16:17:12;5.03;;;2.40;;
13443;SDS011;6794;59.218;18.218;2022-12-07T16:19:38;3.27;;;1.90;;
13443;SDS011;6794;59.218;18.218;2022-12-07T16:22:04;1.70;;;1.50;;
13443;SDS011;6794;59.218;18.218;2022-12-07T16:24:30;4.13;;;2.10;;
13443;SDS011;6794;59.218;18.218;2022-12-07T16:26:57;5.63;;;2.08;;
13443;SDS011;6794;59.218;18.218;2022-12-07T16:29:23;4.93;;;2.58;;
13443;SDS011;6794;59.218;18.218;2022-12-07T16:31:49;5.37;;;3.03;;
13443;SDS011;6794;59.218;18.218;2022-12-07T16:34:16;5.88;;;3.25;;
13443;SDS011;6794;59.218;18.218;2022-12-07T16:36:42;4.50;;;3.22;;
13443;SDS011;6794;59.218;18.218;2022-12-07T16:39:08;5.28;;;3.10;;
13443;SDS011;6794;59.218;18.218;2022-12-07T16:41:35;8.73;;;4.20;;
13443;SDS011;6794;59.218;18.218;2022-12-07T16:44:05;3.75;;;2.90;;
13443;SDS011;6794;59.218;18.218;2022-12-07T16:46:34;3.05;;;2.50;;